createdAt,value
2019-02-04T00:00:29.601Z,89.32
2019-02-04T00:02:58.947Z,89.36
2019-02-04T00:05:27.421Z,89.55
2019-02-04T00:07:55.881Z,89.28
2019-02-04T00:10:24.339Z,89.23
2019-02-04T00:12:52.823Z,89.25
2019-02-04T00:15:21.534Z,89.36
2019-02-04T00:17:50.035Z,89.53
2019-02-04T00:20:18.515Z,89.35
2019-02-04T00:22:47.062Z,89.11
2019-02-04T00:25:17.520Z,89.15
2019-02-04T00:27:45.879Z,89.14
2019-02-04T00:30:17.641Z,89.13
2019-02-04T00:32:46.196Z,89.13
2019-02-04T00:35:14.757Z,89.25
2019-02-04T00:37:43.390Z,89.35
2019-02-04T00:40:14.949Z,89.50
2019-02-04T00:42:45.025Z,89.21
2019-02-04T00:45:13.547Z,89.17
2019-02-04T00:47:42.161Z,89.18
2019-02-04T00:50:13.533Z,89.32
2019-02-04T00:52:42.015Z,89.70
2019-02-04T00:55:11.850Z,89.47
2019-02-04T00:57:40.556Z,89.41
2019-02-04T01:00:24.381Z,89.57
2019-02-04T01:02:53.313Z,89.76
2019-02-04T01:05:21.931Z,89.48
2019-02-04T01:07:50.923Z,89.39
2019-02-04T01:10:25.113Z,89.75
2019-02-04T01:12:53.569Z,90.05
2019-02-04T01:15:22.375Z,90.11
2019-02-04T01:17:51.136Z,90.13
2019-02-04T01:20:22.655Z,90.50
2019-02-04T01:22:51.579Z,90.65
2019-02-04T01:25:20.199Z,90.49
2019-02-04T01:27:48.636Z,90.82
2019-02-04T01:30:20.172Z,90.99
2019-02-04T01:32:48.595Z,91.67
2019-02-04T01:35:17.027Z,92.23
2019-02-04T01:37:45.938Z,91.62
2019-02-04T01:40:19.687Z,91.83
2019-02-04T01:42:48.285Z,92.17
2019-02-04T01:45:16.733Z,92.29
2019-02-04T01:47:45.263Z,91.92
2019-02-04T01:50:16.126Z,92.00
2019-02-04T01:52:44.634Z,92.38
2019-02-04T01:55:14.535Z,92.38
2019-02-04T01:57:43.644Z,92.57
2019-02-04T02:00:17.373Z,93.01
2019-02-04T02:02:45.824Z,93.44
2019-02-04T02:05:14.642Z,93.26
2019-02-04T02:07:43.259Z,93.53
2019-02-04T02:10:17.374Z,93.55
2019-02-04T02:12:45.821Z,93.76
2019-02-04T02:15:14.490Z,93.61
2019-02-04T02:17:42.951Z,93.52
2019-02-04T02:20:17.197Z,93.81
2019-02-04T02:22:45.647Z,94.05
2019-02-04T02:25:14.149Z,94.11
2019-02-04T02:27:42.603Z,94.42
2019-02-04T02:30:25.466Z,94.25
2019-02-04T02:32:53.905Z,94.24
2019-02-04T02:35:22.339Z,94.53
2019-02-04T02:37:50.858Z,94.95
2019-02-04T02:40:27.699Z,95.35
2019-02-04T02:42:56.396Z,95.77
2019-02-04T02:45:25.010Z,95.84
2019-02-04T02:47:53.463Z,95.56
2019-02-04T02:50:21.903Z,95.07
2019-02-04T02:52:50.347Z,95.54
2019-02-04T02:55:19.658Z,95.72
2019-02-04T02:57:48.281Z,95.80
2019-02-04T03:00:24.734Z,95.81
2019-02-04T03:02:53.506Z,95.84
2019-02-04T03:05:22.244Z,96.16
2019-02-04T03:07:50.942Z,96.45
2019-02-04T03:10:22.511Z,96.20
2019-02-04T03:12:51.164Z,95.79
2019-02-04T03:15:19.985Z,96.10
2019-02-04T03:17:51.992Z,96.18
2019-02-04T03:20:18.615Z,96.04
2019-02-04T03:22:47.355Z,96.07
2019-02-04T03:25:15.820Z,95.90
2019-02-04T03:27:44.538Z,95.78
2019-02-04T03:30:27.573Z,96.03
2019-02-04T03:32:56.012Z,95.81
2019-02-04T03:35:24.508Z,95.64
2019-02-04T03:37:52.951Z,94.95
2019-02-04T03:40:24.222Z,95.07
2019-02-04T03:42:52.687Z,95.02
2019-02-04T03:45:21.383Z,94.85
2019-02-04T03:47:50.078Z,95.01
2019-02-04T03:50:18.779Z,94.71
2019-02-04T03:52:47.210Z,94.41
2019-02-04T03:55:17.202Z,94.17
2019-02-04T03:57:45.699Z,94.57
2019-02-04T04:00:19.648Z,94.88
2019-02-04T04:02:48.258Z,95.11
2019-02-04T04:05:16.683Z,94.88
2019-02-04T04:07:45.411Z,94.62
2019-02-04T04:10:14.464Z,94.57
2019-02-04T04:12:42.891Z,94.40
2019-02-04T04:15:13.252Z,94.67
2019-02-04T04:17:41.749Z,94.75
2019-02-04T04:20:15.420Z,94.20
2019-02-04T04:22:43.867Z,94.51
2019-02-04T04:25:14.457Z,94.58
2019-02-04T04:27:42.886Z,94.39
2019-02-04T04:30:20.048Z,94.25
2019-02-04T04:32:48.564Z,93.85
2019-02-04T04:35:17.175Z,94.04
2019-02-04T04:37:45.636Z,94.24
2019-02-04T04:40:15.932Z,94.12
2019-02-04T04:42:44.556Z,94.24
2019-02-04T04:45:22.097Z,93.98
2019-02-04T04:47:50.897Z,93.98
2019-02-04T04:50:19.616Z,93.87
2019-02-04T04:52:48.224Z,94.01
2019-02-04T04:55:19.711Z,94.43
2019-02-04T04:57:48.176Z,94.33
2019-02-04T05:00:22.271Z,94.38
2019-02-04T05:02:52.596Z,94.41
2019-02-04T05:05:21.040Z,94.52
2019-02-04T05:07:49.484Z,94.66
2019-02-04T05:10:22.015Z,95.22
2019-02-04T05:12:50.472Z,95.80
2019-02-04T05:15:21.899Z,95.88
2019-02-04T05:17:52.635Z,95.71
2019-02-04T05:20:21.202Z,95.78
2019-02-04T05:22:49.644Z,96.04
2019-02-04T05:25:18.363Z,96.09
2019-02-04T05:27:46.811Z,96.16
2019-02-04T05:30:17.861Z,96.46
2019-02-04T05:32:46.671Z,96.78
2019-02-04T05:35:15.110Z,97.18
2019-02-04T05:37:43.656Z,97.39
2019-02-04T05:40:14.224Z,97.54
2019-02-04T05:42:42.970Z,97.63
2019-02-04T05:45:13.933Z,97.67
2019-02-04T05:47:42.392Z,97.63
2019-02-04T05:50:13.074Z,97.54
2019-02-04T05:52:41.520Z,97.50
2019-02-04T05:55:10.620Z,97.80
2019-02-04T05:57:39.448Z,97.64
2019-02-04T06:00:13.724Z,97.72
2019-02-04T06:02:42.164Z,97.85
2019-02-04T06:05:12.454Z,97.98
2019-02-04T06:07:40.900Z,98.39
2019-02-04T06:10:11.276Z,98.80
2019-02-04T06:12:39.736Z,99.03
2019-02-04T06:15:13.679Z,99.17
2019-02-04T06:17:42.306Z,99.23
2019-02-04T06:20:22.446Z,99.05
2019-02-04T06:22:51.206Z,98.81
2019-02-04T06:25:19.938Z,98.51
2019-02-04T06:27:48.814Z,98.47
2019-02-04T06:30:18.349Z,98.33
2019-02-04T06:32:46.840Z,98.29
2019-02-04T06:35:17.153Z,98.33
2019-02-04T06:37:46.901Z,98.26
2019-02-04T06:40:16.994Z,98.56
2019-02-04T06:42:45.976Z,98.65
2019-02-04T06:45:16.401Z,98.98
2019-02-04T06:47:45.025Z,99.03
2019-02-04T06:50:16.172Z,99.07
2019-02-04T06:52:44.636Z,98.99
2019-02-04T06:55:22.048Z,98.83
2019-02-04T06:57:50.498Z,98.66
2019-02-04T07:00:19.284Z,98.17
2019-02-04T07:02:47.733Z,98.13
2019-02-04T07:05:17.086Z,98.27
2019-02-04T07:07:46.464Z,98.29
2019-02-04T07:10:24.012Z,98.35
2019-02-04T07:12:52.478Z,97.93
2019-02-04T07:15:20.951Z,97.66
2019-02-04T07:17:49.524Z,96.93
2019-02-04T07:20:26.040Z,96.95
2019-02-04T07:22:54.476Z,96.67
2019-02-04T07:25:23.660Z,96.83
2019-02-04T07:27:52.121Z,97.04
2019-02-04T07:30:27.941Z,96.87
2019-02-04T07:32:56.704Z,96.35
2019-02-04T07:35:25.368Z,95.89
2019-02-04T07:37:53.984Z,96.06
2019-02-04T07:40:24.781Z,96.38
2019-02-04T07:42:54.169Z,96.52
2019-02-04T07:45:22.808Z,96.67
2019-02-04T07:47:51.562Z,96.96
2019-02-04T07:50:20.006Z,97.08
2019-02-04T07:52:48.548Z,97.19
2019-02-04T07:55:17.000Z,97.17
2019-02-04T07:57:45.448Z,96.16
2019-02-04T08:00:25.396Z,95.93
2019-02-04T08:02:54.236Z,95.88
2019-02-04T08:05:22.968Z,95.73
2019-02-04T08:07:51.419Z,95.74
2019-02-04T08:10:19.893Z,95.52
2019-02-04T08:12:48.400Z,95.46
2019-02-04T08:15:21.098Z,94.99
2019-02-04T08:17:49.541Z,94.35
2019-02-04T08:20:18.007Z,94.37
2019-02-04T08:22:46.457Z,94.13
2019-02-04T08:25:16.448Z,94.36
2019-02-04T08:27:44.965Z,93.98
2019-02-04T08:30:19.699Z,93.66
2019-02-04T08:32:48.381Z,93.31
2019-02-04T08:35:16.845Z,93.01
2019-02-04T08:37:45.420Z,92.85
2019-02-04T08:40:16.229Z,93.06
2019-02-04T08:42:44.854Z,93.03
2019-02-04T08:45:15.060Z,93.58
2019-02-04T08:47:43.858Z,93.80
2019-02-04T08:50:20.791Z,93.37
2019-02-04T08:52:49.329Z,92.18
2019-02-04T08:55:17.881Z,92.04
2019-02-04T08:57:46.499Z,92.30
2019-02-04T09:00:18.260Z,92.44
2019-02-04T09:02:46.765Z,92.29
2019-02-04T09:05:16.637Z,91.43
2019-02-04T09:07:45.469Z,91.00
2019-02-04T09:10:19.681Z,91.05
2019-02-04T09:12:48.392Z,90.32
2019-02-04T09:15:17.284Z,90.61
2019-02-04T09:17:45.816Z,90.75
2019-02-04T09:20:16.603Z,90.32
2019-02-04T09:22:45.810Z,90.31
2019-02-04T09:25:16.269Z,90.12
2019-02-04T09:27:44.741Z,89.63
2019-02-04T09:30:18.937Z,89.61
2019-02-04T09:32:47.790Z,89.45
2019-02-04T09:35:20.768Z,88.92
2019-02-04T09:37:49.215Z,88.75
2019-02-04T09:40:20.689Z,88.72
2019-02-04T09:42:49.437Z,88.61
2019-02-04T09:45:18.648Z,88.26
2019-02-04T09:47:47.184Z,88.18
2019-02-04T09:50:21.900Z,88.26
2019-02-04T09:52:48.697Z,88.08
2019-02-04T09:55:19.978Z,88.17
2019-02-04T09:57:48.698Z,88.16
2019-02-04T10:00:20.090Z,87.60
2019-02-04T10:02:48.714Z,87.19
2019-02-04T10:05:18.804Z,87.12
2019-02-04T10:07:47.266Z,86.63
2019-02-04T10:10:21.873Z,86.78
2019-02-04T10:12:52.511Z,86.83
2019-02-04T10:15:23.201Z,86.29
2019-02-04T10:17:51.754Z,86.28
2019-02-04T10:20:20.279Z,85.80
2019-02-04T10:22:48.692Z,85.43
2019-02-04T10:25:29.226Z,85.86
2019-02-04T10:27:57.712Z,85.97
2019-02-04T10:30:26.324Z,85.84
2019-02-04T10:32:54.760Z,85.55
2019-02-04T10:35:23.274Z,85.42
2019-02-04T10:37:52.282Z,84.88
2019-02-04T10:40:22.945Z,85.01
2019-02-04T10:42:51.567Z,84.29
2019-02-04T10:45:21.095Z,84.01
2019-02-04T10:47:50.710Z,83.86
2019-02-04T10:50:27.450Z,83.36
2019-02-04T10:52:56.115Z,83.68
2019-02-04T10:55:24.708Z,83.71
2019-02-04T10:57:53.417Z,83.69
2019-02-04T11:00:30.223Z,84.01
2019-02-04T11:02:58.758Z,84.02
2019-02-04T11:05:29.933Z,83.78
2019-02-04T11:07:58.428Z,84.04
2019-02-04T11:10:33.198Z,83.50
2019-02-04T11:13:01.985Z,83.43
2019-02-04T11:15:30.636Z,83.11
2019-02-04T11:17:59.446Z,82.92
2019-02-04T11:20:30.318Z,82.48
2019-02-04T11:22:59.025Z,81.54
2019-02-04T11:25:27.621Z,81.23
2019-02-04T11:27:56.276Z,81.24
2019-02-04T11:30:27.542Z,81.69
2019-02-04T11:32:56.314Z,80.72
2019-02-04T11:35:24.747Z,80.46
2019-02-04T11:37:53.416Z,80.35
2019-02-04T11:40:24.870Z,79.35
2019-02-04T11:42:53.337Z,78.39
2019-02-04T11:45:21.928Z,78.88
2019-02-04T11:47:50.677Z,78.56
2019-02-04T11:50:19.131Z,77.89
2019-02-04T11:52:47.874Z,77.54
2019-02-04T11:55:17.313Z,77.90
2019-02-04T11:57:45.884Z,77.73
2019-02-04T12:00:20.141Z,76.63
2019-02-04T12:02:49.141Z,75.64
2019-02-04T12:05:19.938Z,75.44
2019-02-04T12:07:48.776Z,75.34
2019-02-04T12:10:38.385Z,75.46
2019-02-04T12:13:07.629Z,74.96
2019-02-04T12:15:36.068Z,73.80
2019-02-04T12:18:04.968Z,73.27
2019-02-04T12:20:33.444Z,73.05
2019-02-04T12:23:01.884Z,72.97
2019-02-04T12:25:30.393Z,73.05
2019-02-04T12:27:58.939Z,72.78
2019-02-04T12:30:31.030Z,72.68
2019-02-04T12:33:00.347Z,72.05
2019-02-04T12:35:29.004Z,71.20
2019-02-04T12:37:57.738Z,70.57
2019-02-04T12:40:26.202Z,70.12
2019-02-04T12:42:54.980Z,69.73
2019-02-04T12:45:35.102Z,69.59
2019-02-04T12:48:03.963Z,69.41
2019-02-04T12:50:32.654Z,69.23
2019-02-04T12:53:01.093Z,69.98
2019-02-04T12:55:31.799Z,69.60
2019-02-04T12:59:39.721Z,68.98
2019-02-04T13:02:08.184Z,69.36
2019-02-04T13:04:36.909Z,69.05
2019-02-04T13:07:05.470Z,69.03
2019-02-04T13:09:34.357Z,68.65
2019-02-04T13:12:03.315Z,68.65
2019-02-04T13:14:32.173Z,69.00
2019-02-04T13:17:00.744Z,69.09
2019-02-04T13:19:29.611Z,68.14
2019-02-04T13:21:58.467Z,68.14
2019-02-04T13:24:27.382Z,66.94
2019-02-04T13:26:56.262Z,66.96
2019-02-04T13:29:25.123Z,67.34
2019-02-04T13:31:54.004Z,67.78
2019-02-04T13:34:22.879Z,67.96
2019-02-04T13:36:51.801Z,66.73
2019-02-04T13:39:20.705Z,66.80
2019-02-04T13:41:49.555Z,65.64
2019-02-04T13:44:18.455Z,65.64
2019-02-04T13:46:47.323Z,64.55
2019-02-04T13:49:16.204Z,64.55
2019-02-04T13:51:56.841Z,63.35
2019-02-04T13:54:15.671Z,64.35
2019-02-04T13:56:44.556Z,64.35
2019-02-04T13:59:13.427Z,64.61
2019-02-04T14:01:42.321Z,65.52
2019-02-04T14:04:11.169Z,65.52
2019-02-04T14:09:10.978Z,66.19
2019-02-04T14:11:39.857Z,65.49
2019-02-04T14:14:08.737Z,65.69
2019-02-04T14:16:37.620Z,65.69
2019-02-04T14:19:06.805Z,65.96
2019-02-04T14:21:35.678Z,65.96
2019-02-04T14:24:04.827Z,66.25
2019-02-04T14:26:33.390Z,66.36
2019-02-04T14:29:01.944Z,66.43
2019-02-04T14:31:30.808Z,66.81
2019-02-04T14:33:59.774Z,67.90
2019-02-04T14:36:28.680Z,68.76
2019-02-04T14:38:57.239Z,68.76
2019-02-04T14:41:25.818Z,69.17
2019-02-04T14:43:54.393Z,69.07
2019-02-04T14:46:35.226Z,69.36
2019-02-04T14:49:19.087Z,70.24
2019-02-04T14:52:02.796Z,70.38
2019-02-04T14:55:04.204Z,70.38
2019-02-04T14:57:36.157Z,71.07
2019-02-04T15:00:32.050Z,71.23
2019-02-04T15:03:20.395Z,71.81
2019-02-04T15:06:07.141Z,71.81
2019-02-04T15:09:04.539Z,72.96
2019-02-04T15:11:36.444Z,72.96
2019-02-04T15:14:20.255Z,74.08
2019-02-04T15:16:54.844Z,74.74
2019-02-04T15:19:58.861Z,75.94
2019-02-04T15:22:36.636Z,76.40
2019-02-04T15:25:38.708Z,76.85
2019-02-04T15:28:19.717Z,77.59
2019-02-04T15:31:06.590Z,78.30
2019-02-04T15:33:41.703Z,78.30
2019-02-04T15:36:34.769Z,78.99
2019-02-04T15:39:16.072Z,79.51
2019-02-04T15:41:50.488Z,80.17
2019-02-04T15:44:28.135Z,81.14
2019-02-04T15:47:12.126Z,81.93
2019-02-04T15:49:50.959Z,82.75
2019-02-04T15:52:20.054Z,83.08
2019-02-04T15:54:48.939Z,83.28
2019-02-04T15:57:18.212Z,83.35
2019-02-04T15:59:47.100Z,83.16
2019-02-04T16:02:15.994Z,83.76
2019-02-04T16:04:44.868Z,83.61
2019-02-04T16:07:13.752Z,83.34
2019-02-04T16:09:42.632Z,83.17
2019-02-04T16:12:11.537Z,83.35
2019-02-04T16:14:40.422Z,83.70
2019-02-04T16:17:09.728Z,83.51
2019-02-04T16:19:38.672Z,84.07
2019-02-04T16:22:07.573Z,84.64
2019-02-04T16:24:36.455Z,84.85
2019-02-04T16:27:05.678Z,85.65
2019-02-04T16:29:34.553Z,85.55
2019-02-04T16:32:03.795Z,85.64
2019-02-04T16:34:32.659Z,86.02
2019-02-04T16:37:01.561Z,86.48
2019-02-04T16:39:30.432Z,86.94
2019-02-04T16:41:59.298Z,86.36
2019-02-04T16:44:28.186Z,86.30
2019-02-04T16:46:57.073Z,86.41
2019-02-04T16:49:25.992Z,86.86
2019-02-04T16:51:54.950Z,86.96
2019-02-04T16:54:23.832Z,87.12
2019-02-04T16:56:52.746Z,87.07
2019-02-04T16:59:22.009Z,86.84
2019-02-04T17:01:50.878Z,86.86
2019-02-04T17:04:19.757Z,87.06
2019-02-04T17:06:48.636Z,87.48
2019-02-04T17:09:17.662Z,87.45
2019-02-04T17:11:46.527Z,87.33
2019-02-04T17:14:15.704Z,87.52
2019-02-04T17:16:44.589Z,87.54
2019-02-04T17:19:13.496Z,87.67
2019-02-04T17:21:42.413Z,87.67
2019-02-04T17:24:11.295Z,87.95
2019-02-04T17:26:40.195Z,88.22
2019-02-04T17:29:09.433Z,88.39
2019-02-04T17:31:38.339Z,88.84
2019-02-04T17:34:07.578Z,88.36
2019-02-04T17:36:36.472Z,88.50
2019-02-04T17:39:07.611Z,88.64
2019-02-04T17:41:36.654Z,88.69
2019-02-04T17:44:06.465Z,88.49
2019-02-04T17:46:35.335Z,88.27
2019-02-04T17:49:04.436Z,88.88
2019-02-04T17:51:33.298Z,88.49
2019-02-04T17:54:05.041Z,88.52
2019-02-04T17:56:32.804Z,88.75
2019-02-04T17:59:01.750Z,88.54
2019-02-04T18:01:30.652Z,88.51
2019-02-04T18:03:59.594Z,88.42
2019-02-04T18:06:31.456Z,88.63
2019-02-04T18:08:59.079Z,88.53
2019-02-04T18:11:27.997Z,88.81
2019-02-04T18:13:57.245Z,89.04
2019-02-04T18:16:26.106Z,89.04
2019-02-04T18:18:55.015Z,88.82
2019-02-04T18:21:23.886Z,88.68
2019-02-04T18:23:52.802Z,88.42
2019-02-04T18:26:21.666Z,88.66
2019-02-04T18:28:50.926Z,87.73
2019-02-04T18:31:19.807Z,87.81
2019-02-04T18:33:49.056Z,88.07
2019-02-04T18:36:17.945Z,88.16
2019-02-04T18:38:46.817Z,87.64
2019-02-04T18:41:15.708Z,87.34
2019-02-04T18:43:44.594Z,87.21
2019-02-04T18:46:13.467Z,86.95
2019-02-04T18:48:44.147Z,86.61
2019-02-04T18:51:13.103Z,87.22
2019-02-04T18:53:41.942Z,87.35
2019-02-04T18:56:11.195Z,86.57
2019-02-04T18:58:40.099Z,86.88
2019-02-04T19:01:08.974Z,86.90
2019-02-04T19:03:37.847Z,86.77
2019-02-04T19:06:06.748Z,86.89
2019-02-04T19:08:35.668Z,86.54
2019-02-04T19:11:04.972Z,86.29
2019-02-04T19:13:36.174Z,86.78
2019-02-04T19:16:04.799Z,86.45
2019-02-04T19:18:33.727Z,86.45
2019-02-04T19:21:02.889Z,86.98
2019-02-04T19:23:31.759Z,86.97
2019-02-04T19:26:01.043Z,87.29
2019-02-04T19:28:29.926Z,87.15
2019-02-04T19:31:09.922Z,87.43
2019-02-04T19:33:38.804Z,86.83
2019-02-04T19:36:08.814Z,86.72
2019-02-04T19:38:38.051Z,87.13
2019-02-04T19:41:07.317Z,87.48
2019-02-04T19:43:36.208Z,87.56
2019-02-04T19:46:05.746Z,87.71
2019-02-04T19:48:34.623Z,87.06
2019-02-04T19:51:03.634Z,86.93
2019-02-04T19:53:32.894Z,87.03
2019-02-04T19:56:01.793Z,87.26
2019-02-04T19:58:30.720Z,87.70
2019-02-04T20:00:59.601Z,87.81
2019-02-04T20:03:28.602Z,87.97
2019-02-04T20:05:58.272Z,87.78
2019-02-04T20:08:27.149Z,87.56
2019-02-04T20:10:56.027Z,87.49
2019-02-04T20:13:24.949Z,87.37
2019-02-04T20:15:53.832Z,87.57
2019-02-04T20:18:22.731Z,87.51
2019-02-04T20:20:51.643Z,87.03
2019-02-04T20:23:20.523Z,87.26
2019-02-04T20:25:49.500Z,87.01
2019-02-04T20:28:18.404Z,87.22
2019-02-04T20:30:47.276Z,87.04
2019-02-04T20:33:16.158Z,87.42
2019-02-04T20:35:45.066Z,87.35
2019-02-04T20:38:15.503Z,87.57
2019-02-04T20:40:44.713Z,87.77
2019-02-04T20:43:13.684Z,87.75
2019-02-04T20:45:42.831Z,87.45
2019-02-04T20:48:13.552Z,86.95
2019-02-04T20:50:45.136Z,87.40
2019-02-04T20:53:15.666Z,87.38
2019-02-04T20:55:47.108Z,87.28
2019-02-04T20:58:16.466Z,86.94
2019-02-04T21:00:45.377Z,87.06
2019-02-04T21:03:14.295Z,86.93
2019-02-04T21:05:43.136Z,86.57
2019-02-04T21:08:12.072Z,86.70
2019-02-04T21:10:41.131Z,86.90
2019-02-04T21:13:12.015Z,87.10
2019-02-04T21:15:42.456Z,87.12
2019-02-04T21:18:11.343Z,86.63
2019-02-04T21:20:40.226Z,86.03
2019-02-04T21:23:09.128Z,86.22
2019-02-04T21:25:38.077Z,85.75
2019-02-04T21:28:06.975Z,85.86
2019-02-04T21:30:40.875Z,85.30
2019-02-04T21:33:10.969Z,85.08
2019-02-04T21:35:39.865Z,85.60
2019-02-04T21:38:09.130Z,85.64
2019-02-04T21:40:38.030Z,85.96
2019-02-04T21:43:07.270Z,85.48
2019-02-04T21:45:36.140Z,85.07
2019-02-04T21:48:05.690Z,84.71
2019-02-04T21:50:34.555Z,85.14
2019-02-04T21:53:03.440Z,84.67
2019-02-04T21:55:32.320Z,84.67
2019-02-04T21:58:01.202Z,84.62
2019-02-04T22:00:37.934Z,84.47
2019-02-04T22:03:07.084Z,84.27
2019-02-04T22:05:36.491Z,84.49
2019-02-04T22:08:06.163Z,83.88
2019-02-04T22:10:35.071Z,83.20
2019-02-04T22:13:03.926Z,83.13
2019-02-04T22:15:33.184Z,82.65
2019-02-04T22:18:02.051Z,83.22
2019-02-04T22:20:31.002Z,83.17
2019-02-04T22:22:59.868Z,82.82
2019-02-04T22:25:28.758Z,82.84
2019-02-04T22:27:57.635Z,83.02
2019-02-04T22:30:28.545Z,82.34
2019-02-04T22:32:57.503Z,82.37
2019-02-04T22:35:26.491Z,82.85
2019-02-04T22:37:55.364Z,82.92
2019-02-04T22:40:26.300Z,82.56
2019-02-04T22:42:55.792Z,82.74
2019-02-04T22:45:24.726Z,82.77
2019-02-04T22:47:54.158Z,82.56
2019-02-04T22:50:25.511Z,82.88
2019-02-04T22:52:54.342Z,82.11
2019-02-04T22:55:31.541Z,82.18
2019-02-04T22:57:54.793Z,82.86
2019-02-04T23:00:46.852Z,82.95
2019-02-04T23:03:17.427Z,82.48
2019-02-04T23:05:46.301Z,82.62
2019-02-04T23:08:15.206Z,82.55
2019-02-04T23:10:44.249Z,82.48
2019-02-04T23:13:13.088Z,82.21
2019-02-04T23:15:41.967Z,82.70
2019-02-04T23:18:11.204Z,82.52
2019-02-04T23:20:40.058Z,82.47
2019-02-04T23:23:08.946Z,82.43
2019-02-04T23:25:43.629Z,82.62
2019-02-04T23:28:08.567Z,82.88
2019-02-04T23:30:37.664Z,83.23
2019-02-04T23:33:06.883Z,83.30
2019-02-04T23:35:35.874Z,82.78
2019-02-04T23:38:06.100Z,82.64
2019-02-04T23:40:34.945Z,82.67
2019-02-04T23:43:04.166Z,82.84
2019-02-04T23:45:33.065Z,83.59
2019-02-04T23:48:02.204Z,83.60
2019-02-04T23:50:31.044Z,83.63
2019-02-04T23:52:59.925Z,83.78
2019-02-04T23:55:28.870Z,82.66
2019-02-04T23:57:57.721Z,82.69
